createdAt,value
2019-04-11T00:04:22.538Z,9.20
2019-04-11T00:09:24.883Z,12.63
2019-04-11T00:14:27.586Z,8.67
2019-04-11T00:19:29.566Z,9.53
2019-04-11T00:24:31.377Z,9.03
2019-04-11T00:29:34.351Z,11.93
2019-04-11T00:34:37.266Z,14.47
2019-04-11T00:39:40.183Z,11.17
2019-04-11T00:44:41.695Z,12.40
2019-04-11T00:49:43.592Z,9.53
2019-04-11T00:54:45.110Z,9.90
2019-04-11T00:59:46.827Z,8.53
2019-04-11T01:04:48.787Z,11.03
2019-04-11T01:09:51.088Z,10.13
2019-04-11T01:14:53.142Z,9.77
2019-04-11T01:19:55.337Z,8.10
2019-04-11T01:24:57.840Z,10.80
2019-04-11T01:29:59.932Z,12.17
2019-04-11T01:35:01.430Z,10.93
2019-04-11T01:40:03.034Z,9.90
2019-04-11T01:45:07.356Z,9.97
2019-04-11T01:50:08.992Z,11.47
2019-04-11T01:55:10.496Z,11.20
2019-04-11T02:00:12.327Z,12.10
2019-04-11T02:05:14.660Z,10.60
2019-04-11T02:10:16.886Z,15.20
2019-04-11T02:15:18.518Z,9.80
2019-04-11T02:20:20.885Z,14.03
2019-04-11T02:25:22.706Z,10.87
2019-04-11T02:30:25.532Z,10.13
2019-04-11T02:35:28.789Z,17.50
2019-04-11T02:40:32.724Z,13.17
2019-04-11T02:45:45.366Z,12.63
2019-04-11T02:50:39.336Z,11.60
2019-04-11T02:55:43.592Z,14.13
2019-04-11T03:00:45.780Z,12.97
2019-04-11T03:05:47.685Z,13.27
2019-04-11T03:10:49.827Z,11.83
2019-04-11T03:16:05.322Z,15.47
2019-04-11T03:21:01.617Z,12.93
2019-04-11T03:26:00.643Z,12.83
2019-04-11T03:31:37.713Z,13.83
2019-04-11T03:37:08.845Z,11.27
2019-04-11T03:41:24.398Z,13.43
2019-04-11T03:46:29.140Z,10.70
2019-04-11T03:51:18.107Z,17.07
2019-04-11T03:56:21.837Z,11.43
2019-04-11T04:01:25.367Z,12.63
2019-04-11T04:06:28.726Z,13.33
2019-04-11T04:11:32.622Z,10.50
2019-04-11T04:16:40.801Z,14.87
2019-04-11T04:21:38.733Z,13.43
2019-04-11T04:26:41.284Z,14.40
2019-04-11T04:31:44.285Z,16.27
2019-04-11T04:36:47.293Z,12.83
2019-04-11T04:41:58.963Z,21.97
2019-04-11T04:47:05.560Z,18.40
2019-04-11T04:51:56.444Z,14.53
2019-04-11T04:57:00.969Z,17.07
2019-04-11T05:02:04.011Z,18.83
2019-04-11T05:07:11.611Z,15.80
2019-04-11T05:12:13.895Z,16.30
2019-04-11T05:17:17.167Z,16.27
2019-04-11T05:22:19.065Z,20.17
2019-04-11T05:27:20.961Z,16.40
2019-04-11T05:32:22.522Z,22.93
2019-04-11T05:37:24.104Z,15.70
2019-04-11T05:42:29.258Z,17.10
2019-04-11T05:47:31.732Z,18.87
2019-04-11T05:52:34.173Z,16.90
2019-04-11T05:57:38.471Z,17.23
2019-04-11T06:02:41.459Z,17.47
2019-04-11T06:07:47.243Z,19.20
2019-04-11T06:12:47.307Z,20.83
2019-04-11T06:17:48.917Z,18.50
2019-04-11T06:22:50.452Z,16.07
2019-04-11T06:27:52.011Z,18.90
2019-04-11T06:32:54.365Z,18.07
2019-04-11T06:37:56.483Z,16.50
2019-04-11T06:42:58.036Z,17.83
2019-04-11T06:47:59.547Z,17.90
2019-04-11T06:53:02.314Z,17.23
2019-04-11T06:58:04.752Z,20.97
2019-04-11T07:03:17.434Z,19.53
2019-04-11T07:08:09.970Z,18.93
2019-04-11T07:13:12.074Z,17.17
2019-04-11T07:18:14.111Z,16.60
2019-04-11T07:23:15.709Z,21.77
2019-04-11T07:28:17.349Z,20.43
2019-04-11T07:33:20.104Z,18.63
2019-04-11T07:38:22.759Z,20.77
2019-04-11T07:43:24.922Z,16.70
2019-04-11T07:48:27.228Z,16.97
2019-04-11T07:53:28.905Z,16.63
2019-04-11T07:58:30.835Z,15.30
2019-04-11T08:03:32.460Z,16.13
2019-04-11T08:08:38.993Z,15.70
2019-04-11T08:13:40.820Z,18.07
2019-04-11T08:18:43.183Z,14.00
2019-04-11T08:23:45.724Z,16.13
2019-04-11T08:28:59.244Z,16.33
2019-04-11T08:33:51.122Z,11.87
2019-04-11T08:38:52.984Z,15.13
2019-04-11T08:43:55.259Z,13.17
2019-04-11T08:48:57.391Z,11.47
2019-04-11T08:53:59.340Z,13.20
2019-04-11T08:59:05.891Z,11.27
2019-04-11T09:04:10.600Z,11.60
2019-04-11T09:09:11.191Z,11.87
2019-04-11T09:14:13.766Z,12.33
2019-04-11T09:19:15.378Z,11.50
2019-04-11T09:24:17.231Z,11.37
2019-04-11T09:29:19.124Z,13.97
2019-04-11T09:34:21.790Z,14.40
2019-04-11T09:39:23.464Z,10.20
2019-04-11T09:44:25.202Z,11.97
2019-04-11T09:49:27.161Z,12.43
2019-04-11T09:54:28.724Z,9.63
2019-04-11T09:59:31.474Z,9.60
2019-04-11T10:04:33.935Z,17.50
2019-04-11T10:09:35.781Z,10.60
2019-04-11T10:14:37.704Z,14.03
2019-04-11T10:19:40.238Z,10.00
2019-04-11T10:24:42.906Z,11.17
2019-04-11T10:29:44.573Z,13.07
2019-04-11T10:34:46.080Z,10.07
2019-04-11T10:39:47.602Z,8.43
2019-04-11T10:44:49.913Z,10.90
2019-04-11T10:49:52.648Z,8.13
2019-04-11T10:54:55.153Z,12.58
2019-04-11T10:59:56.892Z,8.98
2019-04-11T11:04:59.031Z,10.35
2019-04-11T11:10:00.848Z,9.65
2019-04-11T11:15:03.217Z,8.53
2019-04-11T11:20:16.354Z,10.10
2019-04-11T11:25:10.750Z,9.18
2019-04-11T11:30:12.748Z,11.63
2019-04-11T11:35:15.140Z,9.75
2019-04-11T11:40:18.798Z,9.45
2019-04-11T11:45:21.497Z,9.33
2019-04-11T11:50:23.864Z,9.30
2019-04-11T11:55:25.577Z,12.27
2019-04-11T12:00:27.262Z,9.10
2019-04-11T12:05:29.490Z,9.53
2019-04-11T12:10:32.893Z,12.07
2019-04-11T12:15:35.105Z,9.43
2019-04-11T12:20:36.748Z,11.03
2019-04-11T12:25:38.973Z,10.37
2019-04-11T12:30:41.891Z,10.90
2019-04-11T12:35:44.367Z,10.47
2019-04-11T12:40:46.292Z,9.53
2019-04-11T12:45:48.201Z,12.57
2019-04-11T12:50:49.716Z,10.83
2019-04-11T12:55:51.512Z,8.93
2019-04-11T13:00:53.138Z,12.67
2019-04-11T13:05:55.068Z,11.27
2019-04-11T13:10:56.655Z,10.83
2019-04-11T13:15:59.105Z,11.93
2019-04-11T13:21:01.279Z,8.30
2019-04-11T13:26:02.816Z,8.63
2019-04-11T13:31:08.022Z,12.82
2019-04-11T13:36:09.584Z,10.38
2019-04-11T13:41:11.177Z,11.88
2019-04-11T13:46:12.839Z,11.05
2019-04-11T13:51:14.380Z,10.45
2019-04-11T13:56:15.994Z,10.50
2019-04-11T14:01:17.549Z,10.03
2019-04-11T14:06:19.381Z,12.25
2019-04-11T14:11:20.931Z,10.38
2019-04-11T14:16:22.844Z,9.40
2019-04-11T14:21:24.367Z,11.37
2019-04-11T14:26:26.250Z,10.23
2019-04-11T14:31:28.119Z,11.28
2019-04-11T14:36:33.750Z,10.00
2019-04-11T14:41:33.089Z,9.83
2019-04-11T14:46:36.688Z,10.60
2019-04-11T14:51:38.909Z,11.87
2019-04-11T14:56:40.480Z,12.20
2019-04-11T15:01:43.999Z,11.25
2019-04-11T15:06:45.468Z,9.73
2019-04-11T15:11:47.938Z,12.25
2019-04-11T15:16:49.562Z,11.13
2019-04-11T15:21:51.104Z,10.30
2019-04-11T15:26:52.646Z,10.87
2019-04-11T15:31:54.153Z,11.53
2019-04-11T15:36:57.704Z,12.60
2019-04-11T15:42:02.392Z,14.33
2019-04-11T15:47:02.984Z,11.57
2019-04-11T15:52:06.850Z,10.70
2019-04-11T15:57:12.400Z,11.27
2019-04-11T16:02:11.383Z,11.27
2019-04-11T16:07:13.311Z,11.33
2019-04-11T16:12:17.022Z,16.62
2019-04-11T16:17:19.049Z,15.60
2019-04-11T16:22:24.690Z,10.77
2019-04-11T16:27:24.058Z,11.65
2019-04-11T16:32:25.628Z,11.83
2019-04-11T16:37:27.212Z,16.80
2019-04-11T16:42:28.730Z,12.30
2019-04-11T16:47:30.392Z,12.30
2019-04-11T16:52:32.290Z,11.83
2019-04-11T16:57:33.841Z,16.07
2019-04-11T17:02:35.420Z,11.73
2019-04-11T17:07:36.946Z,11.83
2019-04-11T17:12:38.533Z,10.05
2019-04-11T17:17:40.236Z,10.90
2019-04-11T17:22:41.719Z,12.13
2019-04-11T17:27:44.601Z,10.63
2019-04-11T17:32:46.571Z,12.53
2019-04-11T17:37:48.545Z,12.30
2019-04-11T17:42:50.385Z,10.73
2019-04-11T17:47:51.997Z,15.60
2019-04-11T17:52:54.778Z,13.37
2019-04-11T17:57:57.664Z,10.97
2019-04-11T18:02:59.430Z,12.23
2019-04-11T18:08:00.992Z,14.87
2019-04-11T18:13:03.258Z,16.63
2019-04-11T18:18:05.443Z,16.43
2019-04-11T18:23:07.864Z,12.60
2019-04-11T18:28:09.520Z,12.43
2019-04-11T18:33:11.232Z,12.37
2019-04-11T18:38:12.975Z,11.67
2019-04-11T18:43:16.225Z,10.83
2019-04-11T18:48:18.409Z,13.83
2019-04-11T18:53:20.417Z,15.67
2019-04-11T18:58:21.991Z,11.63
2019-04-11T19:03:35.448Z,11.43
2019-04-11T19:08:27.488Z,13.23
2019-04-11T19:13:29.634Z,11.30
2019-04-11T19:18:32.287Z,13.30
2019-04-11T19:23:33.864Z,13.57
2019-04-11T19:28:37.073Z,12.73
2019-04-11T19:33:48.765Z,13.67
2019-04-11T19:38:49.881Z,13.40
2019-04-11T19:43:51.514Z,10.50
2019-04-11T19:48:57.060Z,13.50
2019-04-11T19:53:56.533Z,15.17
2019-04-11T19:58:58.052Z,15.23
2019-04-11T20:03:59.645Z,10.80
2019-04-11T20:09:01.298Z,12.37
2019-04-11T20:14:03.884Z,14.30
2019-04-11T20:19:05.460Z,11.80
2019-04-11T20:24:07.010Z,11.27
2019-04-11T20:29:08.903Z,12.03
2019-04-11T20:34:10.474Z,12.33
2019-04-11T20:39:14.966Z,12.63
2019-04-11T20:44:15.899Z,13.03
2019-04-11T20:49:17.455Z,13.10
2019-04-11T20:54:19.005Z,12.40
2019-04-11T20:59:20.618Z,12.17
2019-04-11T21:04:22.133Z,13.87
2019-04-11T21:09:23.750Z,14.90
2019-04-11T21:14:25.339Z,11.57
2019-04-11T21:19:27.213Z,15.60
2019-04-11T21:24:30.974Z,14.60
2019-04-11T21:29:32.584Z,12.13
2019-04-11T21:34:34.091Z,11.47
2019-04-11T21:39:36.001Z,13.17
2019-04-11T21:44:37.508Z,15.57
2019-04-11T21:49:39.059Z,14.07
2019-04-11T21:54:45.128Z,10.50
2019-04-11T21:59:44.454Z,13.47
2019-04-11T22:04:46.413Z,13.20
2019-04-11T22:09:47.912Z,14.07
2019-04-11T22:14:49.903Z,15.70
2019-04-11T22:19:51.428Z,14.97
2019-04-11T22:24:53.036Z,10.67
2019-04-11T22:29:55.163Z,11.73
2019-04-11T22:34:59.088Z,9.80
2019-04-11T22:40:02.032Z,11.63
2019-04-11T22:45:05.958Z,11.17
2019-04-11T22:50:09.857Z,11.83
2019-04-11T22:55:11.865Z,10.83
2019-04-11T23:00:15.313Z,11.63
2019-04-11T23:05:17.944Z,12.13
2019-04-11T23:10:19.840Z,11.33
2019-04-11T23:15:21.381Z,12.63
2019-04-11T23:20:22.911Z,15.87
2019-04-11T23:25:24.800Z,11.90
2019-04-11T23:30:26.739Z,11.87
2019-04-11T23:35:28.263Z,13.03
2019-04-11T23:40:29.761Z,14.37
2019-04-11T23:45:31.756Z,10.67
2019-04-11T23:50:33.417Z,12.20
2019-04-11T23:55:37.706Z,12.77
